createdAt,value
2022-10-18T00:02:13.344Z,16.00
2022-10-18T00:04:39.987Z,15.98
2022-10-18T00:07:06.492Z,15.99
2022-10-18T00:09:33.540Z,15.98
2022-10-18T00:12:01.674Z,15.98
2022-10-18T00:14:28.160Z,15.98
2022-10-18T00:16:54.620Z,16.00
2022-10-18T00:19:24.720Z,16.00
2022-10-18T00:21:53.608Z,15.98
2022-10-18T00:24:20.240Z,15.99
2022-10-18T00:26:47.103Z,15.98
2022-10-18T00:29:15.794Z,15.97
2022-10-18T00:31:44.066Z,15.98
2022-10-18T00:34:14.476Z,15.98
2022-10-18T00:36:41.868Z,15.95
2022-10-18T00:39:14.110Z,15.94
2022-10-18T00:41:40.636Z,15.92
2022-10-18T00:44:12.900Z,15.92
2022-10-18T00:46:44.614Z,15.92
2022-10-18T00:49:13.383Z,15.94
2022-10-18T00:51:55.178Z,15.92
2022-10-18T00:54:22.081Z,15.91
2022-10-18T00:56:49.122Z,15.91
2022-10-18T00:59:18.385Z,15.92
2022-10-18T01:01:45.623Z,15.91
2022-10-18T01:04:14.784Z,15.91
2022-10-18T01:09:49.900Z,15.87
2022-10-18T01:12:25.113Z,15.81
2022-10-18T01:15:09.112Z,15.79
2022-10-18T01:17:53.895Z,15.78
2022-10-18T01:20:53.750Z,15.76
2022-10-18T01:24:07.085Z,15.71
2022-10-18T01:27:06.159Z,15.71
2022-10-18T01:29:47.556Z,15.73
2022-10-18T01:32:24.913Z,15.75
2022-10-18T01:34:57.241Z,15.76
2022-10-18T01:37:25.078Z,15.80
2022-10-18T01:39:56.013Z,15.87
2022-10-18T01:42:22.833Z,15.79
2022-10-18T01:44:52.075Z,15.72
2022-10-18T01:47:19.902Z,15.66
2022-10-18T01:49:46.803Z,15.61
2022-10-18T01:52:15.166Z,15.61
2022-10-18T01:54:50.503Z,15.64
2022-10-18T01:57:24.844Z,15.70
2022-10-18T02:00:06.553Z,15.73
2022-10-18T02:02:50.082Z,15.71
2022-10-18T02:05:43.879Z,15.69
2022-10-18T02:08:40.181Z,15.70
2022-10-18T02:11:13.114Z,15.70
2022-10-18T02:13:48.049Z,15.69
2022-10-18T02:16:21.184Z,15.66
2022-10-18T02:19:05.873Z,15.68
2022-10-18T02:21:32.860Z,15.69
2022-10-18T02:24:02.162Z,15.68
2022-10-18T02:26:29.020Z,15.65
2022-10-18T02:28:55.658Z,15.67
2022-10-18T02:31:34.046Z,15.70
2022-10-18T02:34:23.221Z,15.68
2022-10-18T02:36:55.320Z,15.63
2022-10-18T02:39:44.114Z,15.64
2022-10-18T02:42:11.930Z,15.67
2022-10-18T02:44:39.209Z,15.69
2022-10-18T02:47:07.396Z,15.71
2022-10-18T02:49:33.958Z,15.71
2022-10-18T02:52:00.557Z,15.68
2022-10-18T02:54:27.096Z,15.68
2022-10-18T02:56:53.534Z,15.65
2022-10-18T02:59:20.099Z,15.65
2022-10-18T03:01:46.706Z,15.69
2022-10-18T03:04:13.612Z,15.70
2022-10-18T03:06:40.178Z,15.70
2022-10-18T03:09:07.010Z,15.73
2022-10-18T03:11:33.528Z,15.72
2022-10-18T03:13:59.996Z,15.74
2022-10-18T03:16:26.468Z,15.75
2022-10-18T03:18:53.109Z,15.72
2022-10-18T03:21:19.601Z,15.74
2022-10-18T03:23:46.064Z,15.74
2022-10-18T03:26:12.531Z,15.76
2022-10-18T03:28:39.064Z,15.77
2022-10-18T03:31:05.709Z,15.76
2022-10-18T03:33:33.043Z,15.76
2022-10-18T03:35:59.932Z,15.76
2022-10-18T03:38:26.685Z,15.76
2022-10-18T03:40:53.177Z,15.76
2022-10-18T03:43:19.743Z,15.76
2022-10-18T03:45:46.217Z,15.75
2022-10-18T03:48:12.684Z,15.75
2022-10-18T03:50:39.169Z,15.74
2022-10-18T03:53:06.042Z,15.75
2022-10-18T03:55:32.533Z,15.77
2022-10-18T03:57:59.077Z,15.77
2022-10-18T04:00:25.964Z,15.77
2022-10-18T04:02:55.085Z,15.78
2022-10-18T04:05:24.187Z,15.79
2022-10-18T04:07:50.885Z,15.80
2022-10-18T04:10:18.717Z,15.80
2022-10-18T04:12:45.313Z,15.81
2022-10-18T04:15:11.985Z,15.78
2022-10-18T04:17:38.504Z,15.74
2022-10-18T04:20:05.795Z,15.74
2022-10-18T04:22:32.247Z,15.72
2022-10-18T04:24:58.780Z,15.73
2022-10-18T04:27:25.849Z,15.73
2022-10-18T04:29:52.374Z,15.72
2022-10-18T04:32:18.862Z,15.72
2022-10-18T04:34:45.821Z,15.73
2022-10-18T04:37:12.746Z,15.74
2022-10-18T04:39:39.636Z,15.72
2022-10-18T04:42:06.372Z,15.72
2022-10-18T04:44:32.883Z,15.71
2022-10-18T04:46:59.837Z,15.72
2022-10-18T04:49:26.304Z,15.75
2022-10-18T04:51:52.747Z,15.75
2022-10-18T04:54:20.377Z,15.74
2022-10-18T04:56:48.374Z,15.71
2022-10-18T04:59:15.050Z,15.73
2022-10-18T05:01:41.566Z,15.72
2022-10-18T05:04:08.205Z,15.73
2022-10-18T05:06:34.735Z,15.71
2022-10-18T05:09:01.470Z,15.73
2022-10-18T05:11:28.005Z,15.71
2022-10-18T05:13:54.447Z,15.71
2022-10-18T05:16:21.021Z,15.72
2022-10-18T05:18:47.530Z,15.72
2022-10-18T05:21:14.179Z,15.71
2022-10-18T05:23:40.785Z,15.73
2022-10-18T05:26:07.994Z,15.72
2022-10-18T05:28:40.237Z,15.75
2022-10-18T05:31:10.425Z,15.72
2022-10-18T05:33:36.983Z,15.73
2022-10-18T05:36:04.123Z,15.74
2022-10-18T05:38:31.202Z,15.73
2022-10-18T05:40:58.759Z,15.70
2022-10-18T05:43:28.989Z,15.70
2022-10-18T05:45:55.654Z,15.72
2022-10-18T05:48:22.305Z,15.70
2022-10-18T05:50:48.785Z,15.68
2022-10-18T05:53:35.305Z,15.68
2022-10-18T05:56:02.806Z,15.71
2022-10-18T05:58:29.411Z,15.70
2022-10-18T06:00:59.358Z,15.66
2022-10-18T06:03:27.530Z,15.64
2022-10-18T06:05:59.867Z,15.66
2022-10-18T06:08:26.429Z,15.68
2022-10-18T06:10:53.081Z,15.69
2022-10-18T06:13:19.976Z,15.72
2022-10-18T06:15:46.450Z,15.73
2022-10-18T06:18:13.088Z,15.75
2022-10-18T06:20:39.582Z,15.73
2022-10-18T06:23:06.767Z,15.76
2022-10-18T06:25:33.250Z,15.75
2022-10-18T06:27:59.745Z,15.69
2022-10-18T06:30:26.287Z,15.69
2022-10-18T06:32:52.722Z,15.70
2022-10-18T06:35:20.120Z,15.72
2022-10-18T06:37:46.551Z,15.72
2022-10-18T06:40:13.115Z,15.70
2022-10-18T06:42:40.307Z,15.69
2022-10-18T06:45:07.352Z,15.71
2022-10-18T06:47:33.834Z,15.77
2022-10-18T06:50:00.378Z,15.76
2022-10-18T06:52:26.836Z,15.76
2022-10-18T06:54:54.124Z,15.76
2022-10-18T06:57:21.706Z,15.76
2022-10-18T06:59:50.025Z,15.79
2022-10-18T07:02:20.186Z,15.86
2022-10-18T07:04:47.161Z,15.83
2022-10-18T07:07:13.608Z,15.83
2022-10-18T07:09:40.434Z,15.88
2022-10-18T07:12:07.084Z,15.90
2022-10-18T07:14:33.596Z,15.94
2022-10-18T07:17:09.874Z,15.97
2022-10-18T07:19:36.396Z,16.00
2022-10-18T07:22:02.863Z,16.04
2022-10-18T07:24:29.773Z,16.07
2022-10-18T07:26:56.569Z,16.12
2022-10-18T07:29:23.224Z,16.15
2022-10-18T07:31:49.693Z,16.16
2022-10-18T07:34:16.150Z,16.19
2022-10-18T07:36:42.656Z,16.17
2022-10-18T07:39:09.332Z,16.24
2022-10-18T07:41:35.979Z,16.25
2022-10-18T07:44:03.778Z,16.25
2022-10-18T07:46:30.452Z,16.27
2022-10-18T07:48:58.452Z,16.29
2022-10-18T07:51:26.057Z,16.35
2022-10-18T07:53:52.533Z,16.40
2022-10-18T07:56:21.679Z,16.31
2022-10-18T07:58:53.774Z,16.39
2022-10-18T08:01:22.317Z,16.33
2022-10-18T08:03:49.248Z,16.30
2022-10-18T08:06:18.568Z,16.22
2022-10-18T08:08:46.031Z,16.25
2022-10-18T08:11:16.226Z,16.21
2022-10-18T08:13:43.206Z,16.22
2022-10-18T08:16:16.500Z,16.18
2022-10-18T08:18:43.303Z,16.15
2022-10-18T08:21:12.197Z,16.11
2022-10-18T08:23:39.122Z,16.03
2022-10-18T08:26:13.932Z,15.95
2022-10-18T08:28:46.032Z,15.99
2022-10-18T08:31:20.551Z,16.00
2022-10-18T08:33:47.887Z,16.03
2022-10-18T08:36:16.104Z,16.05
2022-10-18T08:38:43.136Z,16.08
2022-10-18T08:41:37.100Z,16.05
2022-10-18T08:44:16.255Z,16.03
2022-10-18T08:46:47.378Z,16.07
2022-10-18T08:49:36.697Z,16.12
2022-10-18T08:52:06.594Z,16.15
2022-10-18T08:54:49.618Z,16.21
2022-10-18T08:57:18.282Z,16.27
2022-10-18T08:59:44.806Z,16.29
2022-10-18T09:02:30.337Z,16.38
2022-10-18T09:05:36.105Z,16.40
2022-10-18T09:08:22.821Z,16.40
2022-10-18T09:11:17.203Z,16.43
2022-10-18T09:14:14.165Z,16.37
2022-10-18T09:16:55.195Z,16.42
2022-10-18T09:19:24.751Z,16.45
2022-10-18T09:21:58.998Z,16.51
2022-10-18T09:24:46.958Z,16.48
2022-10-18T09:27:18.731Z,16.55
2022-10-18T09:30:26.977Z,16.70
2022-10-18T09:33:16.278Z,16.78
2022-10-18T09:35:51.149Z,16.76
2022-10-18T09:38:21.566Z,16.62
2022-10-18T09:40:58.963Z,16.61
2022-10-18T09:43:46.312Z,16.73
2022-10-18T09:46:13.874Z,16.74
2022-10-18T09:48:49.210Z,16.82
2022-10-18T09:51:22.140Z,16.90
2022-10-18T09:54:17.553Z,16.95
2022-10-18T09:56:52.234Z,17.04
2022-10-18T09:59:30.827Z,17.01
2022-10-18T10:01:57.357Z,17.04
2022-10-18T10:04:24.112Z,17.08
2022-10-18T10:06:55.141Z,17.21
2022-10-18T10:09:30.704Z,17.45
2022-10-18T10:11:58.244Z,17.55
2022-10-18T10:14:30.463Z,17.53
2022-10-18T10:17:03.405Z,17.48
2022-10-18T10:20:03.598Z,17.41
2022-10-18T10:22:38.920Z,17.30
2022-10-18T10:25:07.390Z,17.24
2022-10-18T10:27:43.641Z,17.26
2022-10-18T10:30:35.241Z,17.33
2022-10-18T10:33:02.293Z,17.40
2022-10-18T10:35:52.556Z,17.44
2022-10-18T10:38:28.114Z,17.39
2022-10-18T10:40:55.423Z,17.29
2022-10-18T10:43:37.462Z,17.32
2022-10-18T10:46:15.302Z,17.40
2022-10-18T10:48:56.285Z,17.52
2022-10-18T10:51:38.515Z,17.54
2022-10-18T10:54:05.178Z,17.60
2022-10-18T10:56:35.900Z,17.68
2022-10-18T10:59:18.864Z,17.76
2022-10-18T11:01:49.787Z,17.76
2022-10-18T11:04:31.308Z,17.68
2022-10-18T11:07:06.560Z,17.52
2022-10-18T11:10:08.777Z,17.44
2022-10-18T11:13:02.484Z,17.34
2022-10-18T11:16:07.322Z,17.20
2022-10-18T11:18:36.693Z,17.22
2022-10-18T11:21:19.295Z,17.22
2022-10-18T11:23:46.057Z,17.19
2022-10-18T11:26:12.578Z,17.20
2022-10-18T11:29:05.578Z,17.13
2022-10-18T11:31:41.679Z,17.22
2022-10-18T11:34:32.758Z,17.26
2022-10-18T11:37:33.407Z,17.31
2022-10-18T11:40:05.685Z,17.31
2022-10-18T11:42:44.399Z,17.37
2022-10-18T11:45:10.860Z,17.47
2022-10-18T11:47:58.738Z,17.51
2022-10-18T11:50:30.806Z,17.69
2022-10-18T11:53:22.303Z,17.76
2022-10-18T11:56:03.018Z,17.85
2022-10-18T11:58:57.660Z,17.77
2022-10-18T12:01:37.292Z,17.87
2022-10-18T12:04:18.783Z,17.83
2022-10-18T12:06:48.739Z,17.68
2022-10-18T12:09:17.880Z,17.73
2022-10-18T12:11:55.497Z,17.76
2022-10-18T12:14:29.820Z,17.80
2022-10-18T12:17:28.071Z,17.88
2022-10-18T12:19:48.419Z,17.98
2022-10-18T12:22:22.505Z,18.02
2022-10-18T12:24:49.047Z,18.03
2022-10-18T12:27:16.566Z,18.06
2022-10-18T12:30:04.397Z,18.15
2022-10-18T12:32:35.171Z,18.13
2022-10-18T12:35:07.549Z,18.03
2022-10-18T12:38:17.837Z,18.13
2022-10-18T12:40:48.493Z,18.37
2022-10-18T12:43:24.142Z,18.45
2022-10-18T12:45:55.499Z,18.73
2022-10-18T12:48:29.959Z,18.73
2022-10-18T12:51:04.736Z,18.61
2022-10-18T12:53:32.187Z,18.43
2022-10-18T12:56:29.824Z,18.16
2022-10-18T12:59:15.146Z,18.31
2022-10-18T13:01:50.662Z,18.37
2022-10-18T13:04:30.084Z,18.37
2022-10-18T13:07:05.482Z,18.44
2022-10-18T13:09:37.281Z,18.62
2022-10-18T13:12:09.638Z,18.76
2022-10-18T13:15:25.576Z,18.58
2022-10-18T13:18:22.591Z,18.58
2022-10-18T13:21:18.310Z,18.67
2022-10-18T13:23:54.049Z,18.75
2022-10-18T13:26:32.220Z,18.78
2022-10-18T13:29:13.721Z,18.97
2022-10-18T13:31:49.732Z,19.01
2022-10-18T13:34:18.316Z,19.01
2022-10-18T13:36:44.878Z,18.88
2022-10-18T13:39:20.613Z,18.86
2022-10-18T13:41:47.064Z,18.86
2022-10-18T13:44:22.755Z,18.80
2022-10-18T13:46:49.242Z,18.73
2022-10-18T13:49:34.117Z,18.66
2022-10-18T13:52:47.507Z,18.54
2022-10-18T13:55:49.797Z,18.30
2022-10-18T13:58:25.773Z,18.11
2022-10-18T14:01:23.251Z,17.94
2022-10-18T14:04:11.170Z,17.90
2022-10-18T14:06:43.825Z,17.84
2022-10-18T14:09:40.372Z,17.81
2022-10-18T14:12:21.649Z,17.84
2022-10-18T14:15:08.464Z,17.81
2022-10-18T14:17:52.073Z,17.91
2022-10-18T14:20:49.546Z,17.93
2022-10-18T14:23:31.700Z,17.92
2022-10-18T14:26:18.884Z,17.84
2022-10-18T14:29:01.442Z,17.87
2022-10-18T14:31:28.659Z,17.77
2022-10-18T14:33:59.075Z,17.82
2022-10-18T14:36:36.311Z,17.80
2022-10-18T14:39:06.182Z,17.76
2022-10-18T14:41:35.521Z,17.71
2022-10-18T14:44:14.368Z,17.68
2022-10-18T14:46:59.465Z,17.67
2022-10-18T14:49:26.543Z,17.59
2022-10-18T14:51:56.797Z,17.57
2022-10-18T14:54:31.612Z,17.47
2022-10-18T14:57:00.629Z,17.44
2022-10-18T14:59:30.593Z,17.41
2022-10-18T15:02:00.159Z,17.39
2022-10-18T15:04:33.273Z,17.44
2022-10-18T15:07:05.985Z,17.48
2022-10-18T15:09:35.530Z,17.47
2022-10-18T15:12:07.706Z,17.44
2022-10-18T15:14:35.756Z,17.42
2022-10-18T15:17:08.529Z,17.38
2022-10-18T15:19:39.540Z,17.40
2022-10-18T15:25:16.319Z,17.37
2022-10-18T15:27:51.509Z,17.38
2022-10-18T15:30:23.793Z,17.45
2022-10-18T15:32:53.746Z,17.35
2022-10-18T15:35:27.692Z,17.24
2022-10-18T15:37:57.361Z,17.14
2022-10-18T15:40:26.536Z,17.08
2022-10-18T15:42:55.764Z,17.11
2022-10-18T15:45:24.929Z,17.16
2022-10-18T15:48:00.777Z,17.06
2022-10-18T15:50:55.023Z,16.98
2022-10-18T15:53:22.160Z,16.99
2022-10-18T15:55:53.569Z,16.94
2022-10-18T15:58:30.384Z,16.89
2022-10-18T16:01:00.444Z,16.93
2022-10-18T16:03:28.372Z,16.89
2022-10-18T16:06:03.233Z,16.80
2022-10-18T16:08:37.236Z,16.82
2022-10-18T16:11:03.903Z,16.86
2022-10-18T16:13:30.528Z,16.81
2022-10-18T16:15:57.166Z,16.77
2022-10-18T16:18:24.771Z,16.69
2022-10-18T16:20:51.383Z,16.59
2022-10-18T16:23:26.755Z,16.55
2022-10-18T16:25:53.677Z,16.57
2022-10-18T16:28:23.775Z,16.50
2022-10-18T16:30:56.584Z,16.44
2022-10-18T16:33:23.813Z,16.45
2022-10-18T16:35:51.123Z,16.37
2022-10-18T16:38:25.320Z,16.29
2022-10-18T16:40:52.768Z,16.26
2022-10-18T16:43:19.331Z,16.21
2022-10-18T16:45:46.545Z,16.09
2022-10-18T16:48:17.825Z,16.00
2022-10-18T16:50:44.430Z,15.94
2022-10-18T16:53:11.250Z,15.82
2022-10-18T16:55:39.630Z,15.72
2022-10-18T16:58:06.457Z,15.62
2022-10-18T17:00:33.200Z,15.56
2022-10-18T17:02:59.815Z,15.51
2022-10-18T17:05:31.139Z,15.48
2022-10-18T17:07:57.713Z,15.45
2022-10-18T17:10:24.440Z,15.35
2022-10-18T17:12:51.822Z,15.31
2022-10-18T17:15:18.585Z,15.26
2022-10-18T17:17:46.005Z,15.23
2022-10-18T17:20:20.623Z,15.21
2022-10-18T17:22:47.772Z,15.18
2022-10-18T17:25:14.851Z,15.14
2022-10-18T17:27:41.755Z,15.10
2022-10-18T17:30:12.779Z,15.07
2022-10-18T17:32:39.409Z,15.06
2022-10-18T17:35:06.554Z,15.06
2022-10-18T17:37:33.383Z,14.97
2022-10-18T17:40:00.095Z,14.97
2022-10-18T17:42:26.680Z,15.04
2022-10-18T17:44:55.658Z,14.89
2022-10-18T17:47:24.345Z,14.77
2022-10-18T17:49:50.853Z,14.77
2022-10-18T17:52:17.393Z,14.65
2022-10-18T17:54:44.454Z,14.58
2022-10-18T17:57:11.169Z,14.62
2022-10-18T17:59:37.697Z,14.48
2022-10-18T18:02:04.244Z,14.39
2022-10-18T18:04:30.824Z,14.38
2022-10-18T18:06:59.408Z,14.35
2022-10-18T18:09:27.367Z,14.28
2022-10-18T18:11:54.344Z,14.27
2022-10-18T18:14:21.746Z,14.28
2022-10-18T18:16:48.485Z,14.24
2022-10-18T18:19:15.945Z,14.16
2022-10-18T18:21:42.896Z,14.12
2022-10-18T18:24:10.629Z,14.09
2022-10-18T18:26:38.595Z,14.09
2022-10-18T18:29:05.167Z,14.08
2022-10-18T18:31:34.543Z,14.02
2022-10-18T18:34:05.240Z,13.86
2022-10-18T18:36:32.661Z,13.76
2022-10-18T18:38:59.579Z,13.67
2022-10-18T18:41:27.754Z,13.66
2022-10-18T18:44:02.810Z,13.72
2022-10-18T18:46:33.190Z,13.67
2022-10-18T18:49:00.621Z,13.57
2022-10-18T18:51:27.350Z,13.56
2022-10-18T18:53:53.922Z,13.57
2022-10-18T18:56:23.596Z,13.59
2022-10-18T18:58:51.379Z,13.58
2022-10-18T19:01:21.361Z,13.54
2022-10-18T19:03:50.222Z,13.50
2022-10-18T19:06:22.799Z,13.48
2022-10-18T19:08:50.428Z,13.52
2022-10-18T19:11:19.924Z,13.52
2022-10-18T19:13:47.344Z,13.47
2022-10-18T19:16:31.639Z,13.50
2022-10-18T19:19:07.448Z,13.57
2022-10-18T19:21:43.167Z,13.59
2022-10-18T19:24:09.957Z,13.57
2022-10-18T19:26:37.904Z,13.60
2022-10-18T19:29:29.977Z,13.62
2022-10-18T19:31:58.847Z,13.57
2022-10-18T19:34:26.974Z,13.51
2022-10-18T19:36:54.136Z,13.49
2022-10-18T19:39:22.523Z,13.44
2022-10-18T19:41:51.505Z,13.45
2022-10-18T19:44:19.820Z,13.41
2022-10-18T19:46:47.006Z,13.40
2022-10-18T19:49:14.399Z,13.43
2022-10-18T19:51:40.910Z,13.32
2022-10-18T19:54:07.708Z,13.30
2022-10-18T19:56:34.367Z,13.28
2022-10-18T19:59:01.339Z,13.24
2022-10-18T20:01:29.580Z,13.24
2022-10-18T20:03:56.971Z,13.23
2022-10-18T20:06:23.991Z,13.17
2022-10-18T20:08:51.042Z,13.10
2022-10-18T20:11:21.203Z,13.04
2022-10-18T20:13:47.836Z,13.03
2022-10-18T20:16:16.073Z,13.01
2022-10-18T20:18:43.451Z,12.98
2022-10-18T20:21:13.063Z,12.90
2022-10-18T20:23:41.552Z,12.85
2022-10-18T20:26:19.804Z,12.85
2022-10-18T20:28:56.085Z,12.85
2022-10-18T20:31:25.080Z,12.82
2022-10-18T20:33:56.793Z,12.83
2022-10-18T20:36:23.509Z,12.77
2022-10-18T20:38:50.311Z,12.73
2022-10-18T20:41:29.026Z,12.70
2022-10-18T20:43:58.566Z,12.68
2022-10-18T20:46:26.831Z,12.63
2022-10-18T20:48:54.426Z,12.64
2022-10-18T20:51:22.079Z,12.58
2022-10-18T20:53:49.459Z,12.57
2022-10-18T20:56:20.732Z,12.59
2022-10-18T20:58:49.407Z,12.55
2022-10-18T21:01:24.021Z,12.51
2022-10-18T21:03:52.270Z,12.45
2022-10-18T21:06:24.854Z,12.42
2022-10-18T21:08:56.706Z,12.42
2022-10-18T21:11:24.423Z,12.37
2022-10-18T21:13:56.398Z,12.34
2022-10-18T21:16:23.007Z,12.29
2022-10-18T21:18:49.632Z,12.24
2022-10-18T21:21:19.301Z,12.23
2022-10-18T21:23:46.324Z,12.21
2022-10-18T21:26:18.750Z,12.18
2022-10-18T21:28:46.042Z,12.12
2022-10-18T21:31:22.086Z,12.07
2022-10-18T21:33:53.170Z,12.08
2022-10-18T21:36:19.810Z,12.06
2022-10-18T21:38:47.020Z,12.02
2022-10-18T21:41:16.187Z,12.00
2022-10-18T21:43:45.727Z,11.94
2022-10-18T21:46:13.892Z,11.91
2022-10-18T21:48:44.566Z,11.82
2022-10-18T21:51:14.819Z,11.75
2022-10-18T21:53:46.723Z,11.79
2022-10-18T21:56:15.660Z,11.79
2022-10-18T21:58:43.061Z,11.82
2022-10-18T22:01:18.264Z,11.81
2022-10-18T22:03:47.834Z,11.85
2022-10-18T22:06:16.244Z,11.83
2022-10-18T22:08:45.517Z,11.78
2022-10-18T22:11:12.798Z,11.78
2022-10-18T22:13:40.242Z,11.83
2022-10-18T22:16:07.737Z,11.84
2022-10-18T22:18:35.156Z,11.85
2022-10-18T22:21:05.492Z,11.83
2022-10-18T22:23:36.849Z,11.84
2022-10-18T22:26:09.163Z,11.78
2022-10-18T22:28:36.241Z,11.71
2022-10-18T22:31:02.956Z,11.72
2022-10-18T22:33:29.885Z,11.69
2022-10-18T22:35:56.686Z,11.65
2022-10-18T22:38:23.894Z,11.62
2022-10-18T22:40:50.697Z,11.62
2022-10-18T22:43:17.264Z,11.60
2022-10-18T22:45:43.895Z,11.53
2022-10-18T22:48:10.469Z,11.54
2022-10-18T22:50:37.026Z,11.59
2022-10-18T22:53:03.789Z,11.61
2022-10-18T22:55:30.290Z,11.65
2022-10-18T22:57:56.804Z,11.60
2022-10-18T23:00:23.606Z,11.50
2022-10-18T23:02:50.207Z,11.41
2022-10-18T23:05:16.932Z,11.39
2022-10-18T23:07:47.977Z,11.38
2022-10-18T23:10:14.746Z,11.36
2022-10-18T23:12:41.311Z,11.31
2022-10-18T23:15:08.329Z,11.19
2022-10-18T23:17:35.223Z,11.17
2022-10-18T23:20:01.989Z,11.09
2022-10-18T23:22:28.866Z,11.05
2022-10-18T23:24:55.327Z,11.04
2022-10-18T23:27:21.837Z,11.04
2022-10-18T23:29:48.520Z,10.98
2022-10-18T23:32:15.053Z,10.96
2022-10-18T23:34:41.617Z,10.96
2022-10-18T23:37:08.140Z,10.96
2022-10-18T23:39:34.630Z,11.01
2022-10-18T23:42:01.135Z,10.97
2022-10-18T23:44:27.631Z,10.90
2022-10-18T23:46:54.205Z,10.83
2022-10-18T23:49:20.760Z,10.74
2022-10-18T23:51:47.256Z,10.76
2022-10-18T23:54:13.866Z,10.78
2022-10-18T23:56:40.358Z,10.79
2022-10-18T23:59:06.823Z,10.74
